Time;durP1;ratioP1;P1;durP2;ratioP2;P2;SDS_P1;SDS_P2;PMS_P1;PMS_P2;Temp;Humidity;BMP_temperature;BMP_pressure;BME280_temperature;BME280_humidity;BME280_pressure;Samples;Min_cycle;Max_cycle;Signal;HPM_P1;HPM_P2
2022/06/29 00:00:19;;;;;;;7.80;5.30;;;26.50;99.90;;;;;;5077714;28;20445;-91
2022/06/29 00:02:46;;;;;;;8.07;5.50;;;26.40;99.90;;;;;;5075993;28;20867;-92
2022/06/29 00:05:15;;;;;;;6.23;5.17;;;26.40;99.90;;;;;;5057618;28;20442;-92
2022/06/29 00:07:41;;;;;;;6.90;5.27;;;26.40;99.90;;;;;;5075412;28;20426;-94
2022/06/29 00:10:09;;;;;;;8.00;5.33;;;26.30;99.90;;;;;;5057333;28;20478;-92
2022/06/29 00:12:35;;;;;;;9.07;5.57;;;26.30;99.90;;;;;;5075541;28;20432;-92
2022/06/29 00:15:04;;;;;;;5.47;4.97;;;26.30;99.90;;;;;;5057491;28;20509;-91
2022/06/29 00:17:31;;;;;;;5.80;5.20;;;26.20;99.90;;;;;;5057362;28;20483;-92
2022/06/29 00:19:57;;;;;;;5.23;4.80;;;26.20;99.90;;;;;;5074874;28;20483;-93
2022/06/29 00:22:23;;;;;;;4.80;4.40;;;26.20;99.90;;;;;;5074933;28;20426;-94
2022/06/29 00:24:49;;;;;;;5.40;4.73;;;26.20;99.90;;;;;;5074902;28;20422;-93
2022/06/29 00:27:15;;;;;;;5.43;4.43;;;26.20;99.90;;;;;;5059002;28;20508;-94
2022/06/29 00:29:41;;;;;;;10.00;5.23;;;26.20;99.90;;;;;;5057631;28;20257;-93
2022/06/29 00:32:07;;;;;;;5.73;5.23;;;26.20;99.90;;;;;;5056955;28;20434;-92
2022/06/29 00:34:33;;;;;;;6.53;5.80;;;26.20;99.90;;;;;;5056891;28;20576;-92
2022/06/29 00:36:59;;;;;;;5.80;5.30;;;26.20;99.90;;;;;;5057210;28;20422;-91
2022/06/29 00:39:24;;;;;;;6.17;4.70;;;26.20;99.90;;;;;;5075044;28;20195;-92
2022/06/29 00:41:50;;;;;;;5.60;5.10;;;26.10;99.90;;;;;;5075290;28;20409;-93
2022/06/29 00:44:17;;;;;;;7.97;5.30;;;26.10;99.90;;;;;;5057736;28;20216;-91
2022/06/29 00:46:47;;;;;;;5.80;5.07;;;26.10;99.90;;;;;;5079289;28;20212;-92
2022/06/29 00:49:17;;;;;;;8.57;5.37;;;26.10;99.90;;;;;;5067727;28;20425;-93
2022/06/29 00:51:53;;;;;;;7.33;4.87;;;26.10;99.90;;;;;;5072703;28;20465;-92
2022/06/29 00:54:22;;;;;;;6.27;5.67;;;26.10;99.90;;;;;;5060576;28;20586;-93
2022/06/29 00:56:49;;;;;;;6.10;5.50;;;26.10;99.90;;;;;;5056929;28;20441;-93
2022/06/29 00:59:19;;;;;;;5.63;4.70;;;26.10;99.90;;;;;;5076024;28;20429;-94
2022/06/29 01:01:45;;;;;;;9.87;5.20;;;26.10;99.90;;;;;;5058113;28;20418;-93
2022/06/29 01:04:11;;;;;;;5.43;4.97;;;26.10;99.90;;;;;;5057538;28;20445;-93
2022/06/29 01:06:37;;;;;;;5.80;5.03;;;26.10;99.90;;;;;;5057627;28;20738;-93
2022/06/29 01:09:04;;;;;;;4.70;4.30;;;26.20;99.90;;;;;;5057029;28;20487;-92
2022/06/29 01:11:31;;;;;;;5.17;4.67;;;26.10;99.90;;;;;;5056839;28;20762;-94
2022/06/29 01:13:57;;;;;;;5.23;4.83;;;26.10;99.90;;;;;;5056671;28;20447;-94
2022/06/29 01:16:23;;;;;;;4.73;4.23;;;26.10;99.90;;;;;;5056611;28;20513;-93
2022/06/29 01:18:49;;;;;;;6.03;5.30;;;26.10;99.90;;;;;;5056537;28;20888;-93
2022/06/29 01:21:18;;;;;;;5.60;4.90;;;26.10;99.90;;;;;;5057298;28;20451;-93
2022/06/29 01:23:44;;;;;;;7.47;5.27;;;26.10;99.90;;;;;;5056752;28;20669;-93
2022/06/29 01:26:11;;;;;;;5.97;5.37;;;26.00;99.90;;;;;;5056763;28;20432;-94
2022/06/29 01:28:46;;;;;;;6.27;5.67;;;26.00;99.90;;;;;;5056958;28;20758;-94
2022/06/29 01:31:18;;;;;;;6.03;5.53;;;26.00;99.90;;;;;;5057085;28;21027;-93
2022/06/29 01:33:46;;;;;;;7.23;5.97;;;25.90;99.90;;;;;;5057258;28;20984;-93
2022/06/29 01:36:14;;;;;;;6.10;5.60;;;25.90;99.90;;;;;;5056442;28;20424;-94
2022/06/29 01:38:40;;;;;;;6.10;5.50;;;25.80;99.90;;;;;;5059803;28;21048;-94
2022/06/29 01:41:10;;;;;;;6.67;6.00;;;25.90;99.90;;;;;;5059450;28;20792;-93
2022/06/29 01:43:39;;;;;;;5.80;5.20;;;25.80;99.90;;;;;;5057882;28;20445;-93
2022/06/29 01:46:06;;;;;;;5.73;5.10;;;25.80;99.90;;;;;;5064882;28;20413;-93
2022/06/29 01:48:32;;;;;;;6.07;5.57;;;25.80;99.90;;;;;;5061443;28;20449;-93
2022/06/29 01:50:59;;;;;;;6.00;5.23;;;25.90;99.90;;;;;;5063115;28;20476;-93
2022/06/29 01:53:25;;;;;;;8.23;4.83;;;25.80;99.90;;;;;;5059994;28;20447;-94
2022/06/29 01:55:51;;;;;;;5.93;5.37;;;25.80;99.90;;;;;;5077688;28;20420;-94
2022/06/29 01:58:17;;;;;;;6.20;5.60;;;25.80;99.90;;;;;;5060754;28;20464;-94
2022/06/29 02:00:44;;;;;;;6.67;5.63;;;25.80;99.90;;;;;;5060434;28;20421;-93
2022/06/29 02:03:10;;;;;;;6.47;5.87;;;25.80;99.90;;;;;;5069204;28;20989;-93
2022/06/29 02:05:36;;;;;;;6.20;5.60;;;25.80;99.90;;;;;;5077603;28;20398;-93
2022/06/29 02:08:02;;;;;;;6.57;5.97;;;25.80;99.90;;;;;;5077815;28;20453;-95
2022/06/29 02:10:28;;;;;;;6.03;5.50;;;25.80;99.90;;;;;;5079862;28;20477;-94
2022/06/29 02:12:54;;;;;;;6.60;5.87;;;25.70;99.90;;;;;;5079687;28;20512;-92
2022/06/29 02:15:21;;;;;;;6.23;5.73;;;25.70;99.90;;;;;;5077067;28;20441;-94
2022/06/29 02:17:47;;;;;;;7.23;5.83;;;25.70;99.90;;;;;;5076734;28;20192;-93
2022/06/29 02:20:13;;;;;;;6.43;5.83;;;25.60;99.90;;;;;;5076413;28;20443;-93
2022/06/29 02:22:40;;;;;;;6.40;5.80;;;25.60;99.90;;;;;;5077243;28;20941;-93
2022/06/29 02:25:07;;;;;;;5.97;5.17;;;25.60;99.90;;;;;;5077189;28;20437;-94
2022/06/29 02:27:32;;;;;;;6.57;5.10;;;25.50;99.90;;;;;;5076387;28;20484;-94
2022/06/29 02:29:58;;;;;;;5.90;5.30;;;25.50;99.90;;;;;;5075967;28;21009;-94
2022/06/29 02:35:08;;;;;;;5.80;5.30;;;25.40;99.90;;;;;;5077393;28;20211;-93
2022/06/29 02:37:33;;;;;;;6.97;6.27;;;25.40;99.90;;;;;;5076195;28;20429;-92
2022/06/29 02:39:59;;;;;;;9.90;6.23;;;25.30;99.90;;;;;;5077871;28;20207;-92
2022/06/29 02:42:26;;;;;;;7.33;6.63;;;25.30;99.90;;;;;;5086171;28;20181;-92
2022/06/29 02:44:52;;;;;;;8.47;6.07;;;25.30;99.90;;;;;;5076011;28;20208;-92
2022/06/29 02:47:18;;;;;;;6.10;5.50;;;25.20;99.90;;;;;;5078917;28;20418;-93
2022/06/29 02:49:44;;;;;;;8.13;5.90;;;25.20;99.90;;;;;;5075802;28;20201;-92
2022/06/29 02:52:09;;;;;;;7.93;6.40;;;25.20;99.90;;;;;;5082330;28;20432;-92
2022/06/29 02:54:36;;;;;;;8.90;5.40;;;25.20;99.90;;;;;;5077662;28;20739;-93
2022/06/29 02:57:02;;;;;;;6.17;5.57;;;25.20;99.90;;;;;;5075330;28;20184;-93
2022/06/29 02:59:27;;;;;;;6.00;5.23;;;25.10;99.90;;;;;;5075636;28;20444;-93
2022/06/29 03:01:53;;;;;;;6.53;5.73;;;25.10;99.90;;;;;;5075830;28;20428;-94
2022/06/29 03:04:19;;;;;;;6.67;6.07;;;25.00;99.90;;;;;;5058953;28;20200;-94
2022/06/29 03:06:45;;;;;;;6.10;5.50;;;25.00;99.90;;;;;;5059033;28;20212;-94
2022/06/29 03:09:10;;;;;;;13.13;5.97;;;25.00;99.90;;;;;;5060864;28;20226;-93
2022/06/29 03:11:36;;;;;;;5.93;5.37;;;24.90;99.90;;;;;;5059198;28;20223;-93
2022/06/29 03:14:02;;;;;;;6.33;5.70;;;24.90;99.90;;;;;;5058746;28;20203;-93
2022/06/29 03:16:28;;;;;;;5.27;4.80;;;25.00;99.90;;;;;;5058598;28;20667;-93
2022/06/29 03:18:53;;;;;;;5.73;5.20;;;24.90;99.90;;;;;;5076337;28;20452;-92
2022/06/29 03:21:19;;;;;;;6.13;5.63;;;24.90;99.90;;;;;;5058773;28;20259;-93
2022/06/29 03:23:45;;;;;;;7.20;5.47;;;24.90;99.90;;;;;;5061027;28;20215;-93
2022/06/29 03:26:11;;;;;;;6.30;5.77;;;24.90;99.90;;;;;;5077456;28;20174;-93
2022/06/29 03:28:37;;;;;;;5.30;4.80;;;24.90;99.90;;;;;;5064624;28;20511;-92
2022/06/29 03:31:04;;;;;;;6.70;5.37;;;24.90;99.90;;;;;;5088574;28;20519;-93
2022/06/29 03:33:30;;;;;;;5.13;4.73;;;24.90;99.90;;;;;;5060344;28;20208;-94
2022/06/29 03:35:55;;;;;;;6.47;5.00;;;24.80;99.90;;;;;;5062363;28;20920;-93
2022/06/29 03:38:21;;;;;;;7.33;5.80;;;24.80;99.90;;;;;;5059567;28;20447;-93
2022/06/29 03:40:47;;;;;;;8.17;5.60;;;24.70;99.90;;;;;;5075950;28;20197;-93
2022/06/29 03:43:13;;;;;;;6.47;5.03;;;24.60;99.90;;;;;;5075861;28;20198;-94
2022/06/29 03:45:39;;;;;;;6.80;5.80;;;24.50;99.90;;;;;;5058028;28;20179;-94
2022/06/29 03:48:05;;;;;;;7.07;4.80;;;24.40;99.90;;;;;;5058113;28;20640;-93
2022/06/29 03:50:31;;;;;;;10.00;5.60;;;24.30;99.90;;;;;;5060631;28;20305;-93
2022/06/29 03:52:57;;;;;;;7.30;6.10;;;24.30;99.90;;;;;;5057636;28;20523;-93
2022/06/29 03:55:22;;;;;;;54.63;34.17;;;24.30;99.90;;;;;;5075516;28;20413;-94
2022/06/29 03:57:48;;;;;;;10.20;7.53;;;24.20;99.90;;;;;;5057700;28;20179;-93
2022/06/29 04:00:14;;;;;;;9.27;7.77;;;24.20;99.90;;;;;;5065209;28;20621;-94
2022/06/29 04:02:41;;;;;;;7.70;6.63;;;24.20;99.90;;;;;;5062689;28;20467;-94
2022/06/29 04:05:07;;;;;;;6.07;5.47;;;24.20;99.90;;;;;;5074562;28;20613;-94
2022/06/29 04:07:33;;;;;;;10.83;6.87;;;24.10;99.90;;;;;;5073828;28;20864;-92
2022/06/29 04:10:01;;;;;;;10.70;6.30;;;24.10;99.90;;;;;;5079683;28;20447;-93
2022/06/29 04:12:28;;;;;;;7.37;6.40;;;24.10;99.90;;;;;;5087203;28;20428;-94
2022/06/29 04:14:54;;;;;;;6.87;5.70;;;24.00;99.90;;;;;;5076566;28;20436;-93
2022/06/29 04:17:20;;;;;;;6.97;6.23;;;24.00;99.90;;;;;;5078230;28;20418;-92
2022/06/29 04:19:45;;;;;;;7.20;6.47;;;24.00;99.90;;;;;;5076953;28;20615;-93
2022/06/29 04:22:11;;;;;;;9.23;6.80;;;23.90;99.90;;;;;;5075653;28;20253;-93
2022/06/29 04:24:36;;;;;;;9.00;6.50;;;23.90;99.90;;;;;;5073798;28;20244;-93
2022/06/29 04:27:02;;;;;;;8.50;7.70;;;23.80;99.90;;;;;;5073759;28;20600;-93
2022/06/29 04:29:28;;;;;;;8.30;6.07;;;23.80;99.90;;;;;;5074843;28;20287;-93
2022/06/29 04:31:54;;;;;;;8.80;7.00;;;23.80;99.90;;;;;;5074122;28;20525;-93
2022/06/29 04:34:19;;;;;;;11.33;7.03;;;23.80;99.90;;;;;;5075195;28;20206;-93
2022/06/29 04:36:45;;;;;;;6.87;6.27;;;23.80;99.90;;;;;;5073830;28;20181;-93
2022/06/29 04:39:11;;;;;;;11.13;8.87;;;23.70;99.90;;;;;;5073760;28;20257;-92
2022/06/29 04:41:36;;;;;;;24.87;15.10;;;23.70;99.90;;;;;;5073866;28;20190;-92
2022/06/29 04:44:02;;;;;;;7.93;7.13;;;23.70;99.90;;;;;;5075576;28;20202;-92
2022/06/29 04:46:28;;;;;;;7.67;6.87;;;23.80;99.90;;;;;;5074643;28;20657;-92
2022/06/29 04:48:59;;;;;;;9.03;7.20;;;23.80;99.90;;;;;;5083752;28;20213;-94
2022/06/29 04:51:28;;;;;;;12.07;6.60;;;23.80;99.90;;;;;;5073467;28;20750;-93
2022/06/29 04:53:54;;;;;;;7.80;7.07;;;23.80;99.90;;;;;;5073185;28;20528;-94
2022/06/29 04:56:20;;;;;;;12.13;7.60;;;23.80;99.90;;;;;;5073546;28;20436;-93
2022/06/29 04:58:46;;;;;;;10.10;7.00;;;23.80;99.90;;;;;;5074527;28;20433;-93
2022/06/29 05:01:11;;;;;;;9.27;7.40;;;23.80;99.90;;;;;;5074831;28;20402;-94
2022/06/29 05:03:37;;;;;;;7.17;6.47;;;23.80;99.90;;;;;;5073201;28;20242;-94
2022/06/29 05:06:03;;;;;;;7.97;6.70;;;23.70;99.90;;;;;;5079066;28;20224;-93
2022/06/29 05:08:29;;;;;;;8.30;6.37;;;23.80;99.90;;;;;;5074099;28;20987;-94
2022/06/29 05:10:55;;;;;;;8.00;7.20;;;23.80;99.90;;;;;;5074044;28;20718;-94
2022/06/29 05:13:21;;;;;;;7.93;6.40;;;23.90;99.90;;;;;;5073139;28;20203;-93
2022/06/29 05:15:47;;;;;;;7.30;5.97;;;23.90;99.90;;;;;;5076918;28;20418;-94
2022/06/29 05:18:13;;;;;;;9.03;7.30;;;24.00;99.90;;;;;;5076769;28;20186;-92
2022/06/29 05:20:39;;;;;;;11.00;8.23;;;24.00;99.90;;;;;;5092277;28;20194;-93
2022/06/29 05:23:04;;;;;;;8.37;6.13;;;24.10;99.90;;;;;;5097388;28;20175;-93
2022/06/29 05:25:31;;;;;;;7.93;7.13;;;24.10;99.90;;;;;;5096712;28;20184;-93
2022/06/29 05:27:57;;;;;;;6.63;6.00;;;24.20;99.90;;;;;;5081203;28;20192;-93
2022/06/29 05:30:22;;;;;;;7.43;6.63;;;24.20;99.90;;;;;;5078923;28;20556;-94
2022/06/29 05:32:48;;;;;;;7.27;6.10;;;24.30;99.90;;;;;;5079550;28;20183;-94
2022/06/29 05:35:14;;;;;;;7.20;5.80;;;24.30;99.90;;;;;;5077441;28;20211;-92
2022/06/29 05:37:39;;;;;;;8.23;6.80;;;24.40;99.90;;;;;;5077089;28;20184;-94
2022/06/29 05:40:06;;;;;;;7.87;6.10;;;24.50;99.90;;;;;;5078020;28;20207;-93
2022/06/29 05:42:32;;;;;;;8.20;6.50;;;24.50;99.90;;;;;;5076285;28;20188;-93
2022/06/29 05:44:57;;;;;;;7.07;6.03;;;24.60;99.90;;;;;;5079071;28;20436;-93
2022/06/29 05:47:23;;;;;;;7.63;6.47;;;24.60;99.90;;;;;;5083056;28;20176;-92
2022/06/29 05:49:48;;;;;;;7.83;6.63;;;24.70;99.90;;;;;;5079630;28;20223;-94
2022/06/29 05:52:14;;;;;;;7.47;6.67;;;24.80;99.90;;;;;;5075780;28;20185;-93
2022/06/29 05:54:40;;;;;;;6.70;6.00;;;24.80;99.90;;;;;;5075615;28;20608;-94
2022/06/29 05:57:06;;;;;;;7.07;6.37;;;24.90;99.90;;;;;;5094344;28;20184;-94
2022/06/29 05:59:32;;;;;;;8.43;6.63;;;25.00;99.90;;;;;;5096343;28;20432;-92
2022/06/29 06:01:58;;;;;;;7.77;6.67;;;25.10;99.90;;;;;;5097792;28;20555;-94
2022/06/29 06:04:25;;;;;;;6.33;5.73;;;25.10;99.90;;;;;;5074016;28;20464;-93
2022/06/29 06:06:51;;;;;;;7.90;6.87;;;25.20;99.90;;;;;;5071034;28;20267;-93
2022/06/29 06:09:21;;;;;;;7.27;6.57;;;25.30;99.90;;;;;;5080158;28;20513;-93
2022/06/29 06:11:47;;;;;;;10.33;7.27;;;25.30;99.90;;;;;;5058933;28;20501;-93
2022/06/29 06:14:12;;;;;;;7.70;6.80;;;25.40;99.90;;;;;;5068705;28;20483;-94
2022/06/29 06:16:38;;;;;;;9.50;6.53;;;25.40;99.90;;;;;;5079992;28;20409;-93
2022/06/29 06:19:04;;;;;;;7.23;6.37;;;25.50;99.90;;;;;;5077946;28;20252;-92
2022/06/29 06:21:30;;;;;;;8.20;6.50;;;25.50;99.90;;;;;;5077536;28;20548;-92
2022/06/29 06:23:55;;;;;;;8.07;7.23;;;25.60;99.90;;;;;;5096439;28;20191;-93
2022/06/29 06:26:22;;;;;;;7.53;6.73;;;25.70;99.90;;;;;;5069431;28;20180;-94
2022/06/29 06:28:50;;;;;;;6.80;6.20;;;25.70;99.90;;;;;;5074457;28;20209;-95
2022/06/29 06:31:16;;;;;;;7.00;6.30;;;25.80;99.90;;;;;;5074310;28;20525;-95
2022/06/29 06:33:41;;;;;;;8.47;6.30;;;25.90;99.90;;;;;;5091860;28;20444;-92
2022/06/29 06:36:07;;;;;;;7.60;6.50;;;26.00;99.90;;;;;;5070942;28;20270;-92
2022/06/29 06:38:33;;;;;;;7.50;6.80;;;26.10;99.90;;;;;;5071747;28;20589;-92
2022/06/29 06:43:42;;;;;;;9.77;7.33;;;26.20;99.90;;;;;;5078983;28;20207;-92
2022/06/29 06:46:08;;;;;;;7.50;6.63;;;26.40;99.90;;;;;;5060851;28;20508;-91
2022/06/29 06:48:34;;;;;;;8.30;7.50;;;26.40;99.90;;;;;;5066609;28;20211;-92
2022/06/29 06:50:59;;;;;;;7.83;7.13;;;26.50;99.90;;;;;;5062802;28;20209;-93
2022/06/29 06:53:26;;;;;;;8.40;7.30;;;26.60;99.90;;;;;;5078994;28;20787;-90
2022/06/29 06:55:52;;;;;;;7.17;6.43;;;26.60;99.90;;;;;;5063391;28;20608;-92
2022/06/29 06:58:17;;;;;;;7.30;6.60;;;26.70;99.90;;;;;;5083698;28;20466;-93
2022/06/29 07:00:43;;;;;;;7.00;6.30;;;26.80;99.90;;;;;;5089967;28;20207;-91
2022/06/29 07:03:09;;;;;;;6.73;6.03;;;26.90;99.90;;;;;;5089964;28;20239;-93
2022/06/29 07:05:35;;;;;;;8.50;6.90;;;27.00;99.90;;;;;;5087055;28;20189;-93
2022/06/29 07:08:00;;;;;;;7.37;6.67;;;27.10;99.90;;;;;;5083582;28;20185;-90
2022/06/29 07:10:26;;;;;;;7.23;6.30;;;27.20;99.90;;;;;;5080706;28;20209;-92
2022/06/29 07:12:52;;;;;;;6.93;6.33;;;27.30;99.90;;;;;;5077232;28;20195;-92
2022/06/29 07:15:18;;;;;;;7.67;6.23;;;27.40;99.90;;;;;;5083623;28;20200;-92
2022/06/29 07:17:43;;;;;;;7.77;6.10;;;27.50;99.90;;;;;;5084161;28;20762;-93
2022/06/29 07:20:10;;;;;;;7.40;6.70;;;27.60;99.90;;;;;;5074488;28;20586;-92
2022/06/29 07:22:35;;;;;;;7.10;6.50;;;27.70;99.90;;;;;;5076499;28;20182;-93
2022/06/29 07:25:03;;;;;;;7.70;6.90;;;27.80;99.90;;;;;;5074211;28;20973;-91
2022/06/29 07:27:28;;;;;;;6.80;6.10;;;27.90;99.90;;;;;;5100131;28;20191;-92
2022/06/29 07:29:54;;;;;;;7.30;6.20;;;28.00;99.90;;;;;;5092286;28;20449;-93
2022/06/29 07:32:20;;;;;;;7.13;5.80;;;28.10;99.90;;;;;;5081264;28;20684;-93
2022/06/29 07:34:47;;;;;;;6.40;5.80;;;28.20;99.90;;;;;;5084546;28;20269;-92
2022/06/29 07:37:13;;;;;;;5.87;5.37;;;28.30;99.90;;;;;;5085380;28;20949;-92
2022/06/29 07:39:38;;;;;;;6.17;5.57;;;28.30;99.90;;;;;;5082609;28;20502;-93
2022/06/29 07:42:04;;;;;;;6.40;5.67;;;28.50;99.90;;;;;;5081337;28;20520;-92
2022/06/29 07:44:31;;;;;;;6.00;5.50;;;28.50;99.90;;;;;;5081999;28;20207;-94
2022/06/29 07:47:00;;;;;;;6.30;5.77;;;28.60;99.90;;;;;;5080187;28;20500;-92
2022/06/29 07:49:26;;;;;;;5.97;5.50;;;28.70;99.90;;;;;;5079273;28;20448;-94
2022/06/29 07:51:53;;;;;;;6.87;6.27;;;28.80;99.90;;;;;;5080822;28;20465;-92
2022/06/29 07:54:19;;;;;;;4.83;4.40;;;28.90;99.90;;;;;;5081843;28;20467;-94
2022/06/29 07:56:44;;;;;;;6.13;5.60;;;29.00;99.90;;;;;;5084553;28;20481;-93
2022/06/29 07:59:10;;;;;;;5.13;4.63;;;29.10;99.90;;;;;;5074045;28;20205;-93
2022/06/29 08:01:39;;;;;;;5.70;5.20;;;29.20;99.90;;;;;;5095146;28;20191;-92
2022/06/29 08:04:05;;;;;;;6.50;4.70;;;29.30;99.90;;;;;;5086941;28;20221;-93
2022/06/29 08:06:34;;;;;;;5.93;5.00;;;29.40;99.90;;;;;;5080799;28;20493;-94
2022/06/29 08:09:03;;;;;;;5.40;4.30;;;29.40;99.90;;;;;;5086249;28;20654;-93
2022/06/29 08:11:34;;;;;;;4.80;4.40;;;29.50;99.90;;;;;;5082070;28;20593;-93
2022/06/29 08:14:00;;;;;;;5.77;4.90;;;29.60;99.90;;;;;;5086657;28;20443;-93
2022/06/29 08:16:26;;;;;;;5.27;4.77;;;29.70;99.90;;;;;;5081062;28;20471;-93
2022/06/29 08:18:52;;;;;;;5.23;4.73;;;29.80;99.90;;;;;;5077171;28;20452;-92
2022/06/29 08:21:18;;;;;;;4.97;4.53;;;29.90;99.90;;;;;;5074878;28;20492;-92
2022/06/29 08:23:43;;;;;;;5.67;5.27;;;30.00;99.90;;;;;;5076003;28;20209;-92
2022/06/29 08:26:09;;;;;;;5.10;4.70;;;30.10;99.90;;;;;;5079436;28;20175;-91
2022/06/29 08:28:35;;;;;;;4.30;3.90;;;30.20;99.90;;;;;;5093310;28;20217;-93
2022/06/29 08:31:00;;;;;;;5.60;5.10;;;30.20;99.90;;;;;;5080968;28;20224;-93
2022/06/29 08:33:26;;;;;;;4.83;4.43;;;30.30;99.90;;;;;;5072601;28;20443;-94
2022/06/29 08:35:52;;;;;;;4.93;4.53;;;30.40;99.90;;;;;;5076824;28;20183;-92
2022/06/29 08:38:18;;;;;;;5.90;4.33;;;30.50;99.90;;;;;;5072448;28;20300;-93
2022/06/29 08:40:47;;;;;;;5.07;4.63;;;30.50;99.90;;;;;;5082854;28;20451;-93
2022/06/29 08:43:15;;;;;;;4.63;3.90;;;30.60;99.90;;;;;;5080778;28;20516;-93
2022/06/29 08:45:49;;;;;;;6.20;4.57;;;30.70;99.90;;;;;;5092526;28;20428;-93
2022/06/29 08:48:16;;;;;;;9.90;4.50;;;30.70;99.90;;;;;;5075432;28;20488;-95
2022/06/29 08:50:48;;;;;;;6.90;4.47;;;30.80;99.90;;;;;;5083280;28;20469;-95
2022/06/29 08:53:14;;;;;;;4.90;4.40;;;30.80;99.90;;;;;;5086963;28;20436;-96
2022/06/29 08:55:46;;;;;;;4.10;3.80;;;30.90;99.90;;;;;;5079070;28;20483;-94
2022/06/29 08:58:24;;;;;;;4.77;4.37;;;31.00;99.70;;;;;;5077931;28;20424;-93
2022/06/29 09:00:50;;;;;;;5.73;4.40;;;31.10;99.70;;;;;;5078252;28;20815;-94
2022/06/29 09:03:18;;;;;;;4.93;4.53;;;31.10;99.00;;;;;;5085120;28;20485;-93
2022/06/29 09:05:48;;;;;;;5.80;5.20;;;31.20;98.40;;;;;;5089528;28;20438;-95
2022/06/29 09:08:16;;;;;;;4.50;4.10;;;31.20;98.70;;;;;;5074430;28;20436;-95
2022/06/29 09:10:41;;;;;;;7.33;4.57;;;31.30;98.40;;;;;;5082553;28;20831;-93
2022/06/29 09:13:08;;;;;;;5.10;4.60;;;31.30;98.30;;;;;;5085594;28;20449;-95
2022/06/29 09:15:38;;;;;;;4.60;4.20;;;31.40;98.00;;;;;;5085033;28;20191;-94
2022/06/29 09:18:26;;;;;;;4.70;4.40;;;31.40;98.20;;;;;;5078106;28;20538;-95
2022/06/29 09:20:59;;;;;;;4.90;4.50;;;31.50;97.80;;;;;;5084572;28;20440;-95
2022/06/29 09:23:26;;;;;;;4.97;4.57;;;31.60;97.90;;;;;;5093593;28;20535;-94
2022/06/29 09:25:52;;;;;;;5.80;4.53;;;31.60;97.70;;;;;;5096892;28;20425;-95
2022/06/29 09:28:26;;;;;;;6.83;4.60;;;31.80;97.30;;;;;;5102824;28;20460;-93
2022/06/29 09:30:52;;;;;;;4.60;4.20;;;31.80;97.00;;;;;;5074088;28;20461;-94
2022/06/29 09:33:26;;;;;;;5.00;4.60;;;31.90;96.30;;;;;;5073918;28;20957;-94
2022/06/29 09:36:08;;;;;;;5.40;4.00;;;31.90;96.70;;;;;;5082992;28;20432;-95
2022/06/29 09:38:37;;;;;;;4.70;4.30;;;32.00;96.30;;;;;;5075512;28;20477;-95
2022/06/29 09:41:11;;;;;;;5.33;4.90;;;32.00;96.50;;;;;;5074959;28;20432;-95
2022/06/29 09:43:42;;;;;;;4.77;3.80;;;32.10;96.20;;;;;;5068506;28;20552;-95
2022/06/29 09:46:10;;;;;;;4.83;4.30;;;32.10;96.40;;;;;;5068800;28;20406;-95
2022/06/29 09:48:38;;;;;;;5.30;4.87;;;32.20;95.70;;;;;;5078513;28;20449;-96
2022/06/29 09:53:54;;;;;;;4.40;4.10;;;32.30;95.30;;;;;;5087436;28;20439;-93
2022/06/29 09:56:22;;;;;;;4.70;4.30;;;32.40;95.00;;;;;;5076375;28;20460;-95
2022/06/29 09:58:49;;;;;;;5.90;3.97;;;32.40;94.70;;;;;;5071908;28;20993;-96
2022/06/29 10:04:01;;;;;;;4.03;3.73;;;32.60;94.50;;;;;;5073831;28;20475;-93
2022/06/29 10:06:28;;;;;;;4.13;3.80;;;32.60;93.70;;;;;;5059797;28;20487;-94
2022/06/29 10:08:56;;;;;;;4.50;4.10;;;32.60;93.00;;;;;;5057280;28;20826;-93
2022/06/29 10:14:42;;;;;;;4.30;3.90;;;32.70;93.00;;;;;;5094645;28;20459;-96
2022/06/29 10:17:17;;;;;;;4.40;4.10;;;32.80;93.30;;;;;;5062061;28;20425;-93
2022/06/29 10:19:49;;;;;;;4.40;3.93;;;32.80;92.60;;;;;;5064094;28;20531;-95
2022/06/29 10:22:15;;;;;;;5.03;4.50;;;32.90;92.60;;;;;;5067528;28;20501;-94
2022/06/29 10:25:05;;;;;;;3.80;3.50;;;32.90;92.90;;;;;;5070841;28;20473;-95
2022/06/29 10:27:31;;;;;;;4.20;3.60;;;32.90;92.00;;;;;;5065009;28;20230;-94
2022/06/29 10:30:23;;;;;;;4.30;4.00;;;32.90;91.90;;;;;;5064330;28;20476;-91
2022/06/29 10:32:50;;;;;;;5.80;4.00;;;32.90;91.90;;;;;;5061204;28;20426;-94
2022/06/29 10:35:16;;;;;;;4.63;4.23;;;32.90;91.60;;;;;;5059018;28;20520;-94
2022/06/29 10:37:52;;;;;;;4.50;4.10;;;32.90;91.90;;;;;;5062517;28;20437;-94
2022/06/29 10:40:24;;;;;;;4.00;3.70;;;32.90;91.60;;;;;;5066273;28;20515;-96
2022/06/29 10:43:08;;;;;;;4.27;3.90;;;32.90;91.70;;;;;;5067641;28;20476;-94
2022/06/29 10:45:39;;;;;;;4.30;4.00;;;32.90;91.40;;;;;;5060239;28;20441;-93
2022/06/29 10:48:07;;;;;;;4.80;3.80;;;33.00;91.40;;;;;;5067771;28;20429;-93
2022/06/29 10:50:38;;;;;;;4.40;4.00;;;33.00;91.50;;;;;;5062049;28;20481;-92
2022/06/29 10:53:08;;;;;;;4.03;3.73;;;33.00;91.40;;;;;;5056281;28;20428;-95
2022/06/29 10:55:42;;;;;;;3.43;3.13;;;33.10;90.90;;;;;;5055924;28;20480;-93
2022/06/29 10:58:10;;;;;;;3.90;3.60;;;33.10;89.90;;;;;;5054522;28;20440;-91
2022/06/29 11:00:41;;;;;;;4.00;3.70;;;33.20;89.40;;;;;;5053256;28;20469;-92
2022/06/29 11:03:15;;;;;;;4.47;4.07;;;33.20;90.00;;;;;;5063151;28;21194;-95
2022/06/29 11:14:05;;;;;;;4.57;3.73;;;33.30;88.00;;;;;;5081269;28;20456;-96
2022/06/29 11:16:36;;;;;;;4.40;4.00;;;33.30;88.10;;;;;;5091247;28;20421;-95
2022/06/29 11:19:04;;;;;;;4.57;4.17;;;33.40;88.20;;;;;;5091017;28;21076;-95
2022/06/29 11:21:30;;;;;;;4.90;3.83;;;33.40;87.40;;;;;;5091985;28;20464;-93
2022/06/29 11:24:03;;;;;;;4.40;4.00;;;33.30;88.40;;;;;;5080073;28;20473;-94
2022/06/29 11:26:34;;;;;;;4.13;3.73;;;33.40;87.00;;;;;;5078327;28;20193;-94
2022/06/29 11:29:01;;;;;;;4.57;3.73;;;33.40;86.50;;;;;;5084688;28;20532;-96
2022/06/29 11:31:27;;;;;;;4.50;4.20;;;33.40;85.90;;;;;;5091902;28;20477;-94
2022/06/29 11:33:54;;;;;;;4.00;3.70;;;33.40;85.30;;;;;;5094316;28;20464;-94
2022/06/29 11:36:26;;;;;;;4.90;3.90;;;33.40;85.00;;;;;;5086192;28;20537;-95
2022/06/29 11:38:57;;;;;;;3.70;3.47;;;33.40;85.30;;;;;;5090241;28;20490;-96
2022/06/29 11:41:26;;;;;;;3.50;3.20;;;33.40;85.60;;;;;;5083585;28;20471;-96
2022/06/29 11:44:02;;;;;;;5.30;3.00;;;33.40;84.60;;;;;;5081182;28;20444;-96
2022/06/29 11:46:30;;;;;;;3.53;3.23;;;33.50;85.60;;;;;;5085065;28;20461;-96
2022/06/29 11:51:59;;;;;;;3.77;3.50;;;33.50;82.90;;;;;;5081687;28;20548;-95
2022/06/29 11:54:48;;;;;;;4.93;3.60;;;33.60;82.90;;;;;;5077379;28;20485;-95
2022/06/29 11:57:17;;;;;;;4.03;3.60;;;33.60;82.50;;;;;;5076773;28;20417;-95
2022/06/29 11:59:44;;;;;;;3.37;3.17;;;33.60;83.00;;;;;;5092345;28;20956;-96
2022/06/29 12:02:15;;;;;;;3.73;3.43;;;33.60;81.90;;;;;;5098168;28;20542;-96
2022/06/29 12:04:43;;;;;;;3.73;3.50;;;33.60;81.20;;;;;;5079295;28;20457;-96
2022/06/29 12:07:10;;;;;;;4.40;3.57;;;33.60;81.20;;;;;;5083696;28;20441;-96
2022/06/29 12:09:37;;;;;;;4.87;3.93;;;33.60;81.30;;;;;;5074401;28;20481;-94
2022/06/29 12:12:04;;;;;;;4.90;3.70;;;33.60;81.50;;;;;;5074998;28;20466;-96
2022/06/29 12:14:30;;;;;;;3.27;3.03;;;33.60;81.20;;;;;;5072696;28;20537;-95
2022/06/29 12:16:56;;;;;;;4.30;3.90;;;33.60;82.50;;;;;;5072041;28;20452;-96
2022/06/29 12:19:22;;;;;;;3.93;3.63;;;33.60;81.30;;;;;;5082560;28;20204;-96
2022/06/29 12:21:48;;;;;;;3.47;3.17;;;33.60;81.20;;;;;;5082705;28;20435;-96
2022/06/29 12:24:16;;;;;;;3.70;3.40;;;33.60;82.00;;;;;;5082927;28;20450;-95
2022/06/29 12:26:42;;;;;;;3.80;3.50;;;33.60;82.10;;;;;;5076483;28;20447;-94
2022/06/29 12:29:08;;;;;;;3.73;3.43;;;33.70;79.70;;;;;;5087764;28;20449;-95
2022/06/29 12:31:36;;;;;;;3.63;3.33;;;33.70;79.70;;;;;;5087943;28;21062;-92
2022/06/29 12:34:03;;;;;;;3.17;2.93;;;33.70;80.70;;;;;;5094752;28;20621;-95
2022/06/29 12:36:28;;;;;;;3.60;3.30;;;33.70;81.90;;;;;;5081038;28;20524;-94
2022/06/29 12:38:54;;;;;;;3.60;3.30;;;33.70;80.60;;;;;;5069850;28;20548;-96
2022/06/29 12:41:20;;;;;;;4.47;3.57;;;33.80;80.80;;;;;;5078701;28;20278;-95
2022/06/29 12:43:46;;;;;;;3.40;3.20;;;33.80;81.60;;;;;;5082986;28;20727;-95
2022/06/29 12:46:12;;;;;;;4.30;3.90;;;33.90;80.90;;;;;;5076024;28;20173;-96
2022/06/29 12:48:37;;;;;;;4.30;4.00;;;33.90;81.00;;;;;;5077701;28;20237;-96
2022/06/29 12:51:04;;;;;;;4.77;4.37;;;33.90;80.60;;;;;;5074443;28;20213;-95
2022/06/29 12:53:33;;;;;;;4.43;4.07;;;34.00;80.50;;;;;;5087756;28;20242;-96
2022/06/29 12:55:59;;;;;;;4.30;4.00;;;34.00;80.50;;;;;;5074610;28;20441;-96
2022/06/29 12:58:26;;;;;;;3.90;3.60;;;34.00;80.60;;;;;;5075267;28;20535;-94
2022/06/29 13:00:52;;;;;;;5.50;4.20;;;33.90;78.90;;;;;;5083830;28;20448;-96
2022/06/29 13:03:18;;;;;;;4.63;4.20;;;33.90;79.20;;;;;;5096965;28;20453;-96
2022/06/29 13:05:43;;;;;;;4.00;3.60;;;33.90;79.30;;;;;;5088987;28;20271;-94
2022/06/29 13:08:10;;;;;;;4.27;3.97;;;34.00;79.50;;;;;;5074235;28;20177;-95
2022/06/29 13:10:36;;;;;;;5.17;3.77;;;34.00;79.90;;;;;;5081376;28;20684;-95